createdAt,value
2023-04-25T00:00:01.202Z,104.4
2023-04-25T00:05:01.508Z,119.2
2023-04-25T00:15:01.373Z,149.2
2023-04-25T00:20:01.150Z,181.6
2023-04-25T00:25:01.375Z,188.0
2023-04-25T00:30:01.119Z,194.6
2023-04-25T00:35:01.243Z,189.3
2023-04-25T00:40:01.119Z,192.2
2023-04-25T00:45:01.686Z,157.4
2023-04-25T00:50:01.114Z,136.9
2023-04-25T00:55:01.179Z,99.1
2023-04-25T01:00:01.102Z,91.7
2023-04-25T01:05:01.372Z,53.1
2023-04-25T01:10:01.140Z,43.6
2023-04-25T01:15:06.237Z,40.6
2023-04-25T01:20:01.108Z,43.7
2023-04-25T01:25:06.262Z,25.2
2023-04-25T01:30:01.150Z,13.0
2023-04-25T01:35:02.192Z,13.8
2023-04-25T01:40:01.107Z,20.5
2023-04-25T01:45:01.251Z,18.5
2023-04-25T01:50:01.090Z,18.4
2023-04-25T02:00:01.159Z,35.9
2023-04-25T02:05:01.214Z,52.1
2023-04-25T02:10:01.081Z,56.4
2023-04-25T02:15:02.175Z,62.4
2023-04-25T02:20:01.124Z,68.5
2023-04-25T02:25:01.235Z,66.4
2023-04-25T02:30:01.119Z,58.7
2023-04-25T02:35:01.168Z,41.7
2023-04-25T02:40:01.148Z,40.4
2023-04-25T02:45:01.284Z,35.2
2023-04-25T02:50:01.111Z,20.3
2023-04-25T02:55:06.270Z,11.4
2023-04-25T03:00:01.156Z,10.9
2023-04-25T03:05:01.257Z,7.9
2023-04-25T03:10:01.181Z,10.5
2023-04-25T03:20:01.212Z,10.0
2023-04-25T03:25:01.309Z,9.1
2023-04-25T03:30:01.156Z,10.8
2023-04-25T03:35:01.222Z,8.1
2023-04-25T03:40:01.184Z,5.8
2023-04-25T03:45:01.584Z,9.0
2023-04-25T03:50:01.221Z,8.0
2023-04-25T03:55:01.313Z,4.6
2023-04-25T04:00:01.195Z,4.6
2023-04-25T04:10:01.396Z,3.4
2023-04-25T04:25:01.514Z,4.9
2023-04-25T04:30:01.166Z,8.2
2023-04-25T04:35:01.270Z,9.0
2023-04-25T04:40:01.205Z,9.1
2023-04-25T04:45:01.198Z,8.8
2023-04-25T04:50:01.184Z,4.5
2023-04-25T07:05:01.267Z,3.4
2023-04-25T07:10:01.113Z,3.8
2023-04-25T07:15:01.192Z,5.8
2023-04-25T07:30:01.292Z,5.7
2023-04-25T07:35:01.251Z,2.4
2023-04-25T07:40:01.112Z,2.0
2023-04-25T09:10:01.234Z,1.7
2023-04-25T09:15:01.138Z,12.0
2023-04-25T09:20:01.073Z,19.3
2023-04-25T09:25:01.203Z,21.2
2023-04-25T09:30:01.099Z,22.3
2023-04-25T09:40:01.212Z,20.9
2023-04-25T09:45:01.164Z,15.0
2023-04-25T09:50:01.173Z,7.7
2023-04-25T09:55:01.265Z,5.8
2023-04-25T10:00:01.140Z,4.7
2023-04-25T10:05:01.251Z,4.6
2023-04-25T10:10:01.189Z,1.9
2023-04-25T10:15:01.225Z,23.2
2023-04-25T10:25:01.669Z,27.2
2023-04-25T10:30:01.192Z,39.8
2023-04-25T10:35:01.324Z,56.6
2023-04-25T10:55:00.987Z,69.6
2023-04-25T11:00:00.812Z,35.6
2023-04-25T11:05:01.409Z,27.1
2023-04-25T11:10:00.832Z,20.3
2023-04-25T11:15:01.025Z,16.2
2023-04-25T11:45:00.967Z,5.8
2023-04-25T11:50:00.781Z,6.0
2023-04-25T11:55:00.879Z,8.4
2023-04-25T12:00:00.775Z,16.6
2023-04-25T12:05:07.721Z,29.8
2023-04-25T12:10:00.776Z,31.9
2023-04-25T12:15:00.914Z,35.2
2023-04-25T12:45:00.926Z,13.5
2023-04-25T12:50:01.748Z,10.1
2023-04-25T12:55:00.784Z,8.1
2023-04-25T13:00:00.725Z,6.8
2023-04-25T13:15:00.883Z,11.6
2023-04-25T13:20:01.742Z,22.6
2023-04-25T13:25:00.772Z,37.1
2023-04-25T13:30:00.707Z,47.4
2023-04-25T13:35:02.300Z,59.2
2023-04-25T13:45:00.761Z,49.4
2023-04-25T13:50:00.676Z,36.4
2023-04-25T13:55:00.764Z,31.5
2023-04-25T14:00:00.681Z,19.7
2023-04-25T14:05:00.823Z,8.2
2023-04-25T14:10:00.676Z,6.9
2023-04-25T14:15:00.811Z,5.4
2023-04-25T15:20:00.820Z,13.1
2023-04-25T15:25:00.757Z,17.5
2023-04-25T15:30:00.771Z,32.8
2023-04-25T15:35:00.754Z,44.1
2023-04-25T15:40:00.727Z,49.4
2023-04-25T15:45:00.917Z,46.6
2023-04-25T15:50:00.763Z,46.0
2023-04-25T15:55:00.759Z,38.8
2023-04-25T16:00:00.737Z,33.8
2023-04-25T16:05:01.018Z,33.0
2023-04-25T16:10:00.724Z,22.8
2023-04-25T16:15:00.830Z,19.3
2023-04-25T16:20:00.737Z,11.2
2023-04-25T16:25:00.771Z,4.9
2023-04-25T17:10:00.908Z,9.9
2023-04-25T17:15:00.905Z,16.6
2023-04-25T17:20:00.749Z,16.2
2023-04-25T17:25:00.817Z,16.5
2023-04-25T17:30:00.796Z,18.4
2023-04-25T17:35:00.827Z,10.2
2023-04-25T17:50:01.833Z,3.4
2023-04-25T17:55:00.863Z,7.8
2023-04-25T18:00:00.784Z,6.8
2023-04-25T18:10:00.910Z,6.7
2023-04-25T18:15:00.880Z,6.3
2023-04-25T18:45:00.921Z,14.0
2023-04-25T18:50:00.764Z,13.8
2023-04-25T19:00:00.838Z,13.8
2023-04-25T19:05:00.884Z,12.0
